Time;durP1;ratioP1;P1;durP2;ratioP2;P2;SDS_P1;SDS_P2;PMS_P1;PMS_P2;Temp;Humidity;BMP_temperature;BMP_pressure;BME280_temperature;BME280_humidity;BME280_pressure;Samples;Min_cycle;Max_cycle;Signal;HPM_P1;HPM_P2
2020/12/25 00:01:32;;;;;;;5.60;5.20;;;8.00;99.90;;;;;;5008994;28;20178;-75
2020/12/25 00:03:59;;;;;;;5.50;5.00;;;8.00;99.90;;;;;;5012327;28;20406;-75
2020/12/25 00:06:34;;;;;;;6.10;5.60;;;7.90;99.90;;;;;;5011514;28;20443;-74
2020/12/25 00:09:00;;;;;;;6.50;6.00;;;8.00;99.90;;;;;;5012273;28;20426;-75
2020/12/25 00:11:36;;;;;;;6.47;5.90;;;8.10;99.90;;;;;;5011013;28;20379;-74
2020/12/25 00:14:03;;;;;;;6.80;6.10;;;8.10;99.90;;;;;;5010497;28;20445;-75
2020/12/25 00:16:28;;;;;;;6.33;5.70;;;8.10;99.90;;;;;;4998376;28;20444;-75
2020/12/25 00:18:54;;;;;;;6.33;5.80;;;8.00;99.90;;;;;;5009972;28;20421;-75
2020/12/25 00:21:20;;;;;;;6.80;6.20;;;8.00;99.90;;;;;;4997854;28;20601;-74
2020/12/25 00:23:46;;;;;;;6.53;5.97;;;7.90;99.90;;;;;;5006891;28;20422;-75
2020/12/25 00:26:25;;;;;;;6.40;5.80;;;8.00;99.90;;;;;;5012371;28;20436;-75
2020/12/25 00:28:51;;;;;;;7.27;6.50;;;8.00;99.90;;;;;;4995092;28;20188;-74
2020/12/25 00:31:32;;;;;;;7.33;6.60;;;8.00;99.90;;;;;;4997254;28;20393;-75
2020/12/25 00:34:00;;;;;;;8.20;7.37;;;8.00;99.90;;;;;;4992050;28;20489;-75
2020/12/25 00:36:31;;;;;;;9.50;8.53;;;8.10;99.90;;;;;;5008256;28;20458;-75
2020/12/25 00:38:59;;;;;;;8.90;8.03;;;8.10;99.90;;;;;;5002083;28;20853;-75
2020/12/25 00:41:26;;;;;;;8.37;7.53;;;8.20;99.90;;;;;;4992590;28;20424;-76
2020/12/25 00:43:53;;;;;;;10.63;7.90;;;8.10;99.90;;;;;;4996815;28;20506;-75
2020/12/25 00:46:20;;;;;;;9.67;8.87;;;8.10;99.90;;;;;;5002297;28;20429;-75
2020/12/25 00:48:46;;;;;;;8.17;7.47;;;8.20;99.90;;;;;;4991837;28;20440;-75
2020/12/25 00:51:14;;;;;;;7.80;7.20;;;8.20;99.90;;;;;;4975297;28;20774;-75
2020/12/25 00:53:40;;;;;;;7.80;7.10;;;8.30;99.90;;;;;;4996828;28;20425;-75
2020/12/25 00:56:06;;;;;;;7.87;7.20;;;8.20;99.90;;;;;;5012173;28;20448;-75
2020/12/25 00:58:32;;;;;;;7.63;7.00;;;8.20;99.90;;;;;;4996952;28;20428;-74
2020/12/25 01:00:58;;;;;;;7.23;6.63;;;8.20;99.90;;;;;;5004132;28;20418;-75
2020/12/25 01:03:23;;;;;;;7.03;6.40;;;8.20;99.90;;;;;;5011176;28;20595;-75
2020/12/25 01:05:49;;;;;;;7.90;7.10;;;8.30;99.90;;;;;;4995631;28;20388;-75
2020/12/25 01:08:16;;;;;;;8.30;7.50;;;8.30;99.90;;;;;;5006738;28;20186;-75
2020/12/25 01:10:42;;;;;;;8.03;7.33;;;8.30;99.90;;;;;;5010236;28;20254;-75
2020/12/25 01:13:08;;;;;;;8.37;7.57;;;8.30;99.90;;;;;;4996451;28;20384;-74
2020/12/25 01:15:33;;;;;;;8.30;7.50;;;8.30;99.90;;;;;;5013403;28;20446;-75
2020/12/25 01:17:59;;;;;;;7.73;7.03;;;8.30;99.90;;;;;;5015226;28;20646;-75
2020/12/25 01:20:25;;;;;;;8.60;7.90;;;8.30;99.90;;;;;;5016016;28;20178;-75
2020/12/25 01:22:51;;;;;;;7.50;6.80;;;8.40;99.90;;;;;;4995407;28;20170;-74
2020/12/25 01:25:16;;;;;;;8.20;7.50;;;8.40;99.90;;;;;;4992106;28;20411;-74
2020/12/25 01:27:42;;;;;;;8.17;7.37;;;8.40;99.90;;;;;;5007839;28;20210;-75
2020/12/25 01:30:08;;;;;;;8.87;7.50;;;8.40;99.90;;;;;;4995515;28;20182;-75
2020/12/25 01:32:34;;;;;;;7.27;6.63;;;8.40;99.90;;;;;;4995165;28;20190;-75
2020/12/25 01:35:04;;;;;;;8.37;7.57;;;8.40;99.90;;;;;;5007762;28;20186;-74
2020/12/25 01:37:31;;;;;;;9.73;7.40;;;8.40;99.90;;;;;;5012911;28;20439;-75
2020/12/25 01:39:56;;;;;;;7.73;6.80;;;8.30;99.90;;;;;;5012166;28;20539;-75
2020/12/25 01:42:22;;;;;;;7.17;6.47;;;8.30;99.90;;;;;;5011699;28;20525;-75
2020/12/25 01:44:48;;;;;;;7.63;6.70;;;8.40;99.90;;;;;;5010420;28;20178;-75
2020/12/25 01:47:16;;;;;;;7.90;6.63;;;8.40;99.90;;;;;;5004200;28;20198;-75
2020/12/25 01:49:43;;;;;;;6.73;6.13;;;8.40;99.90;;;;;;4998894;28;20281;-75
2020/12/25 01:52:09;;;;;;;6.43;5.80;;;8.30;99.50;;;;;;5014118;28;20500;-75
2020/12/25 01:54:35;;;;;;;7.27;6.50;;;8.30;99.50;;;;;;5003901;28;20458;-75
2020/12/25 01:57:01;;;;;;;7.70;6.90;;;8.30;99.40;;;;;;5002262;28;20465;-75
2020/12/25 01:59:28;;;;;;;7.10;6.40;;;8.30;99.90;;;;;;5012804;28;20429;-75
2020/12/25 02:01:54;;;;;;;6.60;6.10;;;8.30;99.90;;;;;;5013059;28;20503;-75
2020/12/25 02:04:20;;;;;;;7.43;6.60;;;8.30;99.90;;;;;;5014691;28;20416;-75
2020/12/25 02:06:46;;;;;;;7.33;6.53;;;8.30;99.90;;;;;;5013513;28;20441;-75
2020/12/25 02:09:11;;;;;;;7.47;6.70;;;8.30;99.80;;;;;;5014191;28;20186;-76
2020/12/25 02:11:37;;;;;;;6.60;6.00;;;8.30;99.90;;;;;;5010072;28;20178;-75
2020/12/25 02:14:03;;;;;;;6.77;6.17;;;8.30;99.60;;;;;;5013043;28;20693;-76
2020/12/25 02:16:29;;;;;;;8.00;7.17;;;8.30;99.40;;;;;;5011622;28;20449;-76
2020/12/25 02:18:55;;;;;;;7.13;6.53;;;8.30;99.10;;;;;;5012151;28;20422;-77
2020/12/25 02:21:20;;;;;;;7.27;6.67;;;8.30;99.20;;;;;;5010755;28;20627;-76
2020/12/25 02:23:46;;;;;;;7.63;7.03;;;8.20;99.50;;;;;;5010781;28;20190;-76
2020/12/25 02:26:12;;;;;;;7.47;6.87;;;8.20;98.90;;;;;;5013545;28;20256;-76
2020/12/25 02:28:40;;;;;;;7.60;6.90;;;8.10;98.60;;;;;;5011071;28;20662;-77
2020/12/25 02:31:07;;;;;;;8.17;7.37;;;8.10;98.90;;;;;;5012599;28;20213;-76
2020/12/25 02:33:33;;;;;;;7.43;6.80;;;8.10;99.00;;;;;;5013559;28;20413;-76
2020/12/25 02:35:59;;;;;;;7.10;6.50;;;8.20;99.10;;;;;;5015287;28;20460;-76
2020/12/25 02:38:25;;;;;;;7.60;6.80;;;8.10;99.00;;;;;;5009002;28;20486;-76
2020/12/25 02:40:50;;;;;;;8.90;6.87;;;8.20;99.10;;;;;;5009714;28;20573;-76
2020/12/25 02:43:16;;;;;;;7.17;6.47;;;8.20;98.90;;;;;;4995017;28;20490;-76
2020/12/25 02:45:42;;;;;;;7.90;7.10;;;8.20;99.00;;;;;;5000929;28;20183;-76
2020/12/25 02:48:07;;;;;;;6.60;6.10;;;8.20;98.60;;;;;;4998828;28;20182;-76
2020/12/25 02:50:34;;;;;;;7.30;6.60;;;8.20;98.30;;;;;;5012392;28;20178;-76
2020/12/25 02:53:00;;;;;;;7.57;6.93;;;8.20;98.10;;;;;;5005032;28;20234;-76
2020/12/25 02:55:26;;;;;;;7.63;5.87;;;8.20;98.30;;;;;;4997486;28;20469;-76
2020/12/25 02:57:52;;;;;;;6.63;5.93;;;8.20;98.20;;;;;;5013292;28;20846;-75
2020/12/25 03:00:18;;;;;;;7.10;5.17;;;8.20;98.40;;;;;;5012228;28;20623;-75
2020/12/25 03:02:43;;;;;;;5.53;5.03;;;8.10;98.60;;;;;;5013285;28;20187;-75
2020/12/25 03:05:09;;;;;;;8.10;5.60;;;8.10;98.40;;;;;;4980473;28;20778;-75
2020/12/25 03:07:35;;;;;;;8.20;5.30;;;8.10;98.30;;;;;;4993773;28;20180;-75
2020/12/25 03:10:01;;;;;;;6.27;5.60;;;8.10;98.30;;;;;;5007611;28;20189;-74
2020/12/25 03:12:26;;;;;;;5.37;4.87;;;7.90;98.70;;;;;;5013505;28;20191;-75
2020/12/25 03:14:52;;;;;;;10.27;5.17;;;7.90;98.60;;;;;;5004726;28;20177;-75
2020/12/25 03:17:18;;;;;;;6.93;5.10;;;7.90;98.50;;;;;;5013532;28;20204;-76
2020/12/25 03:19:43;;;;;;;7.40;5.57;;;7.90;98.80;;;;;;5012646;28;20722;-75
2020/12/25 03:22:09;;;;;;;5.77;4.90;;;8.00;98.40;;;;;;5011997;28;20189;-75
2020/12/25 03:24:35;;;;;;;7.00;4.67;;;8.00;98.10;;;;;;5003395;28;20214;-75
2020/12/25 03:27:00;;;;;;;7.23;5.90;;;8.00;98.10;;;;;;4993852;28;20241;-75
2020/12/25 03:29:26;;;;;;;6.43;5.83;;;8.00;98.30;;;;;;5001629;28;20598;-75
2020/12/25 03:31:52;;;;;;;6.77;6.07;;;8.00;98.50;;;;;;5005056;28;20265;-75
2020/12/25 03:34:18;;;;;;;5.90;5.30;;;8.00;98.20;;;;;;4994362;28;20182;-76
2020/12/25 03:36:44;;;;;;;5.63;5.00;;;8.00;97.70;;;;;;5026387;28;20248;-76
2020/12/25 03:39:09;;;;;;;7.60;6.20;;;7.80;97.90;;;;;;5001689;28;20281;-76
2020/12/25 03:41:35;;;;;;;8.60;6.20;;;7.70;98.90;;;;;;4994753;28;20428;-76
2020/12/25 03:44:01;;;;;;;7.90;6.70;;;7.70;98.40;;;;;;5013368;28;20423;-76
2020/12/25 03:46:36;;;;;;;10.30;6.57;;;7.70;98.20;;;;;;5012987;28;20265;-76
2020/12/25 03:49:06;;;;;;;9.10;6.67;;;7.70;98.80;;;;;;5013101;28;20188;-76
2020/12/25 03:51:32;;;;;;;7.07;6.00;;;7.70;98.20;;;;;;5011537;28;20487;-76
2020/12/25 03:53:59;;;;;;;11.40;5.40;;;7.70;98.20;;;;;;5013329;28;20387;-76
2020/12/25 03:56:25;;;;;;;6.93;6.17;;;7.70;97.60;;;;;;5009653;28;20553;-76
2020/12/25 03:58:51;;;;;;;8.07;5.30;;;7.70;97.40;;;;;;4991397;28;20422;-76
2020/12/25 04:01:17;;;;;;;10.63;5.67;;;7.70;97.50;;;;;;4993302;28;20429;-76
2020/12/25 04:03:43;;;;;;;11.07;5.80;;;7.60;97.30;;;;;;4992936;28;20185;-75
2020/12/25 04:06:09;;;;;;;6.60;4.93;;;7.60;97.60;;;;;;4996805;28;20396;-75
2020/12/25 04:08:35;;;;;;;5.30;4.80;;;7.60;97.70;;;;;;4992883;28;20189;-75
2020/12/25 04:11:01;;;;;;;5.90;5.30;;;7.50;97.90;;;;;;5011444;28;20402;-75
2020/12/25 04:13:26;;;;;;;8.23;5.83;;;7.50;97.80;;;;;;5012906;28;20465;-75
2020/12/25 04:15:52;;;;;;;6.37;4.43;;;7.40;98.10;;;;;;5012561;28;20206;-75
2020/12/25 04:18:18;;;;;;;5.83;4.30;;;7.40;98.20;;;;;;5013142;28;20177;-75
2020/12/25 04:20:43;;;;;;;4.63;3.93;;;7.30;98.40;;;;;;5008859;28;20197;-75
2020/12/25 04:23:09;;;;;;;7.43;5.03;;;7.30;98.30;;;;;;4992843;28;20528;-75
2020/12/25 04:25:35;;;;;;;9.33;5.10;;;7.30;98.60;;;;;;4992940;28;20528;-75
2020/12/25 04:28:01;;;;;;;5.50;5.10;;;7.30;98.40;;;;;;4992751;28;20265;-76
2020/12/25 04:30:26;;;;;;;4.43;4.13;;;7.40;98.20;;;;;;5004763;28;20182;-76
2020/12/25 04:32:52;;;;;;;4.40;4.00;;;7.30;98.40;;;;;;5009758;28;20182;-76
2020/12/25 04:35:18;;;;;;;4.60;4.00;;;7.40;98.40;;;;;;5011185;28;20234;-76
2020/12/25 04:37:43;;;;;;;5.23;3.87;;;7.40;99.20;;;;;;5011287;28;20235;-76
2020/12/25 04:40:09;;;;;;;4.10;3.70;;;7.30;98.80;;;;;;4999480;28;20185;-76
2020/12/25 04:42:40;;;;;;;3.37;3.10;;;7.40;98.60;;;;;;4992503;28;20182;-76
2020/12/25 04:45:07;;;;;;;4.57;3.13;;;7.40;98.10;;;;;;5003235;28;20645;-76
2020/12/25 04:47:34;;;;;;;3.40;3.10;;;7.50;97.80;;;;;;5011822;28;20421;-76
2020/12/25 04:50:02;;;;;;;4.40;3.07;;;7.50;97.60;;;;;;5011863;28;20425;-76
2020/12/25 04:52:28;;;;;;;4.70;3.03;;;7.60;97.40;;;;;;5008244;28;20412;-76
2020/12/25 04:54:54;;;;;;;3.83;3.03;;;7.60;97.10;;;;;;4991938;28;20854;-76
2020/12/25 04:57:19;;;;;;;4.70;3.20;;;7.60;96.90;;;;;;4992739;28;20566;-75
2020/12/25 04:59:45;;;;;;;3.80;2.77;;;7.50;96.50;;;;;;4991938;28;20403;-75
2020/12/25 05:02:11;;;;;;;4.67;2.60;;;7.50;96.50;;;;;;5008989;28;20187;-75
2020/12/25 05:04:36;;;;;;;4.90;2.90;;;7.50;96.30;;;;;;5012020;28;20182;-75
2020/12/25 05:07:02;;;;;;;3.17;2.60;;;7.50;96.00;;;;;;4994804;28;20208;-75
2020/12/25 05:09:29;;;;;;;2.87;2.67;;;7.50;95.90;;;;;;4991546;28;20214;-75
2020/12/25 05:11:57;;;;;;;6.40;3.10;;;7.40;96.20;;;;;;4991824;28;20200;-75
2020/12/25 05:14:32;;;;;;;3.03;2.80;;;7.50;96.00;;;;;;4992861;28;20857;-75
2020/12/25 05:16:59;;;;;;;7.70;2.93;;;7.40;96.40;;;;;;4991727;28;20456;-75
2020/12/25 05:19:28;;;;;;;3.00;2.80;;;7.30;96.10;;;;;;4992611;28;20386;-75
2020/12/25 05:21:59;;;;;;;3.20;2.90;;;7.30;96.20;;;;;;4996522;28;20817;-75
2020/12/25 05:24:26;;;;;;;5.10;2.80;;;7.20;96.20;;;;;;4992454;28;20402;-77
2020/12/25 05:26:56;;;;;;;4.17;2.90;;;7.20;96.00;;;;;;5003002;28;20395;-77
2020/12/25 05:29:24;;;;;;;3.20;2.70;;;7.20;95.90;;;;;;5007813;28;20393;-77
2020/12/25 05:31:52;;;;;;;6.70;3.03;;;7.10;95.80;;;;;;5011629;28;20399;-76
2020/12/25 05:34:19;;;;;;;3.40;2.80;;;7.10;95.80;;;;;;5011821;28;20389;-77
2020/12/25 05:36:52;;;;;;;9.47;3.27;;;7.10;95.70;;;;;;5011306;28;20421;-76
2020/12/25 05:39:25;;;;;;;5.13;3.20;;;7.00;95.90;;;;;;5011699;28;20444;-77
2020/12/25 05:41:55;;;;;;;7.20;2.70;;;7.00;96.00;;;;;;5011224;28;20518;-76
2020/12/25 05:44:26;;;;;;;3.63;3.00;;;6.90;96.00;;;;;;5012714;28;20893;-76
2020/12/25 05:46:53;;;;;;;6.57;2.80;;;6.90;95.90;;;;;;5014461;28;20469;-77
2020/12/25 05:49:19;;;;;;;2.83;2.60;;;6.90;95.90;;;;;;5015224;28;20400;-77
2020/12/25 05:51:49;;;;;;;3.70;2.73;;;6.90;95.80;;;;;;5014769;28;20838;-76
2020/12/25 05:54:20;;;;;;;2.70;2.50;;;6.90;95.80;;;;;;5017038;28;20444;-77
2020/12/25 05:56:51;;;;;;;3.30;2.80;;;6.80;95.80;;;;;;5014387;28;20501;-76
2020/12/25 05:59:25;;;;;;;3.83;2.50;;;6.80;95.90;;;;;;5015286;28;20389;-76
2020/12/25 06:01:56;;;;;;;5.23;3.50;;;6.80;95.70;;;;;;5014135;28;20489;-76
2020/12/25 06:04:26;;;;;;;2.93;2.73;;;6.80;95.70;;;;;;5015094;28;20444;-76
2020/12/25 06:06:53;;;;;;;4.90;3.00;;;6.80;95.40;;;;;;5014537;28;20378;-76
2020/12/25 06:09:20;;;;;;;10.93;3.57;;;6.70;95.40;;;;;;5014565;28;20793;-77
2020/12/25 06:11:50;;;;;;;2.77;2.57;;;6.70;95.60;;;;;;5011087;28;20427;-76
2020/12/25 06:14:19;;;;;;;3.33;3.00;;;6.60;95.70;;;;;;5015148;28;20377;-76
2020/12/25 06:17:01;;;;;;;5.87;3.20;;;6.60;95.80;;;;;;5013578;28;20454;-76
2020/12/25 06:19:50;;;;;;;4.80;2.90;;;6.60;96.00;;;;;;5007698;28;20401;-77
2020/12/25 06:22:28;;;;;;;3.00;2.80;;;6.60;96.00;;;;;;5015089;28;20437;-77
2020/12/25 06:24:57;;;;;;;3.20;3.00;;;6.60;96.00;;;;;;5014095;28;20377;-76
2020/12/25 06:27:26;;;;;;;6.43;3.50;;;6.60;96.30;;;;;;5014641;28;20468;-77
2020/12/25 06:29:54;;;;;;;4.20;3.30;;;6.50;96.20;;;;;;5013921;28;20379;-76
2020/12/25 06:32:22;;;;;;;5.50;3.00;;;6.50;96.20;;;;;;5014151;28;20454;-76
2020/12/25 06:34:50;;;;;;;4.85;3.10;;;6.50;96.40;;;;;;5013819;28;20411;-76
2020/12/25 06:37:17;;;;;;;6.30;3.05;;;6.50;96.70;;;;;;5014412;28;20207;-76
2020/12/25 06:39:47;;;;;;;4.30;2.93;;;6.50;97.00;;;;;;5013026;28;20564;-76
2020/12/25 06:42:13;;;;;;;9.35;3.75;;;6.50;97.30;;;;;;5032814;28;20440;-76
2020/12/25 06:44:43;;;;;;;4.30;3.60;;;6.50;97.60;;;;;;5027891;28;20225;-76
2020/12/25 06:47:10;;;;;;;3.42;3.08;;;6.60;97.80;;;;;;5014410;28;20397;-76
2020/12/25 06:49:36;;;;;;;5.43;3.63;;;6.60;98.00;;;;;;5014315;28;20176;-76
2020/12/25 06:52:03;;;;;;;5.87;4.13;;;6.60;98.10;;;;;;5013293;28;20245;-76
2020/12/25 06:54:39;;;;;;;4.20;3.27;;;6.60;98.00;;;;;;5014209;28;20215;-76
2020/12/25 06:57:09;;;;;;;5.67;3.27;;;6.70;97.90;;;;;;5012638;28;20445;-77
2020/12/25 06:59:34;;;;;;;3.60;3.00;;;6.70;97.80;;;;;;5014314;28;20867;-77
2020/12/25 07:02:01;;;;;;;11.47;4.73;;;6.80;98.30;;;;;;5012953;28;20417;-77
2020/12/25 07:04:29;;;;;;;5.67;3.37;;;6.80;98.20;;;;;;5013236;28;20209;-76
2020/12/25 07:06:58;;;;;;;7.03;3.80;;;6.80;97.90;;;;;;5013283;28;20451;-77
2020/12/25 07:09:34;;;;;;;3.83;3.30;;;6.90;98.00;;;;;;5013875;28;20756;-77
2020/12/25 07:12:20;;;;;;;5.13;3.20;;;6.90;98.10;;;;;;5013278;28;20742;-76
2020/12/25 07:14:46;;;;;;;5.83;3.30;;;6.90;98.10;;;;;;5012971;28;20416;-78
2020/12/25 07:17:12;;;;;;;8.63;3.77;;;6.90;98.10;;;;;;5013560;28;20469;-73
2020/12/25 07:19:39;;;;;;;4.83;3.83;;;6.90;98.10;;;;;;5013726;28;20711;-73
2020/12/25 07:22:06;;;;;;;3.53;3.23;;;6.90;98.00;;;;;;5013122;28;20385;-73
2020/12/25 07:24:36;;;;;;;3.73;3.43;;;6.90;98.00;;;;;;5013704;28;20394;-75
2020/12/25 07:27:02;;;;;;;3.70;3.40;;;7.00;98.00;;;;;;5012225;28;20389;-74
2020/12/25 07:29:28;;;;;;;5.67;3.30;;;7.00;97.90;;;;;;5006618;28;20427;-75
2020/12/25 07:31:54;;;;;;;7.47;3.97;;;7.00;97.80;;;;;;5020200;28;20174;-74
2020/12/25 07:34:24;;;;;;;4.63;3.50;;;7.00;97.70;;;;;;5013256;28;20429;-74
2020/12/25 07:36:54;;;;;;;4.00;3.40;;;7.00;97.70;;;;;;5013752;28;20728;-77
2020/12/25 07:39:21;;;;;;;4.30;4.00;;;7.10;97.80;;;;;;5015744;28;20910;-80
2020/12/25 07:41:47;;;;;;;8.87;5.00;;;7.10;98.10;;;;;;5011649;28;20885;-80
2020/12/25 07:44:12;;;;;;;4.67;4.30;;;7.20;99.20;;;;;;5013035;28;20395;-80
2020/12/25 07:46:39;;;;;;;5.20;4.70;;;7.40;98.90;;;;;;5011985;28;20590;-80
2020/12/25 07:49:06;;;;;;;4.97;4.50;;;7.50;98.90;;;;;;5012419;28;20188;-80
2020/12/25 07:51:33;;;;;;;6.27;4.00;;;7.70;99.40;;;;;;5012950;28;20403;-82
2020/12/25 07:54:00;;;;;;;6.37;4.57;;;7.90;99.70;;;;;;5012161;28;20916;-82
2020/12/25 07:56:31;;;;;;;5.07;4.23;;;8.00;98.60;;;;;;5011799;28;20445;-83
2020/12/25 07:58:57;;;;;;;6.27;4.33;;;8.10;99.40;;;;;;5010889;28;20401;-83
2020/12/25 08:01:25;;;;;;;5.10;4.60;;;8.20;99.20;;;;;;5011727;28;20802;-82
2020/12/25 08:03:51;;;;;;;6.23;4.10;;;8.30;98.70;;;;;;5010411;28;20426;-84
2020/12/25 08:06:24;;;;;;;6.00;4.30;;;8.40;98.50;;;;;;5012861;28;20932;-83
2020/12/25 08:09:01;;;;;;;4.33;3.93;;;8.60;98.60;;;;;;5005135;28;20426;-83
2020/12/25 08:11:27;;;;;;;5.13;3.90;;;8.70;98.50;;;;;;5003467;28;20465;-82
2020/12/25 08:13:59;;;;;;;4.10;3.70;;;8.80;97.70;;;;;;4992569;28;20382;-83
2020/12/25 08:16:25;;;;;;;4.70;4.20;;;8.90;96.70;;;;;;5003904;28;20462;-80
2020/12/25 08:18:50;;;;;;;6.20;4.60;;;8.90;97.40;;;;;;5009890;28;20414;-80
2020/12/25 08:21:17;;;;;;;7.07;5.10;;;8.90;97.10;;;;;;5012365;28;20655;-81
2020/12/25 08:23:43;;;;;;;6.40;5.47;;;9.00;97.10;;;;;;5011497;28;20191;-81
2020/12/25 08:26:09;;;;;;;7.97;5.20;;;9.00;98.20;;;;;;5005905;28;20577;-80
2020/12/25 08:28:35;;;;;;;7.00;6.10;;;9.00;97.40;;;;;;4991880;28;20619;-75
2020/12/25 08:31:17;;;;;;;6.53;6.03;;;9.20;99.90;;;;;;5001370;28;20417;-78
2020/12/25 08:33:56;;;;;;;6.50;5.43;;;9.20;99.90;;;;;;5004115;28;20517;-78
2020/12/25 08:36:23;;;;;;;7.53;5.77;;;9.30;99.90;;;;;;5009223;28;20461;-77
2020/12/25 08:38:49;;;;;;;8.43;4.90;;;9.40;99.90;;;;;;5010775;28;20457;-79
2020/12/25 08:41:15;;;;;;;7.80;5.60;;;9.30;96.10;;;;;;5011871;28;20422;-77
2020/12/25 08:43:41;;;;;;;8.20;5.80;;;9.20;95.60;;;;;;5011167;28;20445;-77
2020/12/25 08:46:07;;;;;;;6.13;4.80;;;9.10;95.20;;;;;;5010361;28;20437;-77
2020/12/25 08:48:46;;;;;;;6.67;4.37;;;9.10;94.80;;;;;;5010787;28;20430;-77
2020/12/25 08:51:13;;;;;;;7.37;5.40;;;8.90;95.10;;;;;;5010997;28;20187;-81
2020/12/25 08:53:48;;;;;;;7.70;5.20;;;8.90;94.70;;;;;;4995378;28;20500;-76
2020/12/25 08:56:26;;;;;;;6.07;5.13;;;8.80;94.80;;;;;;5000440;28;20465;-75
2020/12/25 08:59:02;;;;;;;6.17;5.07;;;8.70;94.80;;;;;;5011369;28;20507;-77
2020/12/25 09:01:30;;;;;;;7.07;6.47;;;8.60;95.10;;;;;;5011292;28;20494;-75
2020/12/25 09:03:59;;;;;;;8.93;6.23;;;8.50;95.30;;;;;;5011757;28;20425;-76
2020/12/25 09:06:25;;;;;;;11.03;6.60;;;8.40;95.50;;;;;;5007078;28;20441;-75
2020/12/25 09:08:51;;;;;;;10.80;5.80;;;8.40;95.50;;;;;;4997899;28;20512;-77
2020/12/25 09:11:19;;;;;;;7.47;5.07;;;8.30;95.40;;;;;;4995042;28;20539;-75
2020/12/25 09:13:47;;;;;;;6.23;5.73;;;8.20;95.30;;;;;;5012037;28;20910;-79
2020/12/25 09:16:13;;;;;;;7.70;7.10;;;8.40;97.30;;;;;;5009615;28;21152;-79
2020/12/25 09:18:39;;;;;;;7.93;7.27;;;9.10;99.40;;;;;;5011432;28;20404;-79
2020/12/25 09:21:10;;;;;;;7.23;6.53;;;9.80;98.60;;;;;;5009664;28;20428;-79
2020/12/25 09:23:37;;;;;;;8.47;7.80;;;10.50;95.90;;;;;;5017456;28;20986;-80
2020/12/25 09:26:05;;;;;;;10.57;7.30;;;11.10;94.60;;;;;;5031575;28;20434;-80
2020/12/25 09:28:31;;;;;;;6.60;6.10;;;11.70;93.50;;;;;;5014486;28;20924;-80
2020/12/25 09:30:57;;;;;;;7.23;5.93;;;12.20;92.20;;;;;;5014752;28;20428;-81
2020/12/25 09:33:23;;;;;;;7.67;6.70;;;12.50;90.80;;;;;;5012920;28;20193;-81
2020/12/25 09:35:50;;;;;;;6.40;5.83;;;12.90;90.10;;;;;;5004058;28;20464;-80
2020/12/25 09:38:16;;;;;;;6.37;5.87;;;13.10;91.20;;;;;;5012838;28;20462;-85
2020/12/25 09:40:42;;;;;;;18.67;11.80;;;13.10;91.60;;;;;;5015159;28;20435;-84
2020/12/25 09:43:08;;;;;;;9.07;5.90;;;13.40;97.30;;;;;;5011939;28;20918;-85
2020/12/25 09:45:34;;;;;;;7.00;5.87;;;13.60;98.50;;;;;;5012903;28;20186;-86
2020/12/25 09:48:00;;;;;;;6.90;6.20;;;14.00;99.90;;;;;;5011800;28;20418;-80
2020/12/25 09:50:26;;;;;;;5.97;5.47;;;14.50;99.90;;;;;;5014626;28;20523;-79
2020/12/25 09:52:51;;;;;;;320.43;243.30;;;14.80;98.70;;;;;;5013244;28;20180;-82
2020/12/25 09:55:17;;;;;;;326.30;219.53;;;15.10;94.90;;;;;;5014396;28;20489;-81
2020/12/25 09:57:43;;;;;;;279.40;183.83;;;15.30;92.30;;;;;;5011209;28;20185;-81
2020/12/25 10:00:11;;;;;;;44.80;29.73;;;15.40;95.90;;;;;;5014454;28;20274;-81
2020/12/25 10:02:37;;;;;;;9.67;8.43;;;15.60;97.30;;;;;;5007297;28;20174;-82
2020/12/25 10:05:07;;;;;;;13.80;12.40;;;15.90;96.90;;;;;;5014547;28;20460;-79
2020/12/25 10:07:33;;;;;;;9.57;8.87;;;16.00;96.40;;;;;;5008765;28;20433;-80
2020/12/25 10:09:59;;;;;;;10.47;9.47;;;16.10;92.00;;;;;;5005688;28;20449;-83
2020/12/25 10:12:25;;;;;;;10.23;8.63;;;16.20;92.80;;;;;;5007726;28;20450;-80
2020/12/25 10:14:51;;;;;;;7.57;6.97;;;16.30;93.00;;;;;;4996758;28;20261;-80
2020/12/25 10:17:17;;;;;;;7.67;6.87;;;16.30;90.50;;;;;;5014621;28;20544;-80
2020/12/25 10:19:44;;;;;;;11.20;9.63;;;16.30;87.50;;;;;;5008627;28;20239;-80
2020/12/25 10:22:10;;;;;;;7.83;7.30;;;16.30;87.00;;;;;;5006767;28;20188;-85
2020/12/25 10:24:36;;;;;;;7.47;6.80;;;16.40;93.20;;;;;;5011189;28;20426;-82
2020/12/25 10:27:02;;;;;;;7.13;6.63;;;16.40;90.40;;;;;;5011821;28;20425;-81
2020/12/25 10:29:28;;;;;;;8.23;6.87;;;16.10;74.20;;;;;;5012497;28;20175;-79
2020/12/25 10:31:54;;;;;;;8.07;7.27;;;15.60;70.50;;;;;;5012153;28;20194;-78
2020/12/25 10:34:20;;;;;;;7.10;6.30;;;14.80;70.80;;;;;;5011784;28;20428;-77
2020/12/25 10:36:45;;;;;;;7.70;7.00;;;14.20;71.60;;;;;;5012992;28;20198;-81
2020/12/25 10:39:12;;;;;;;7.80;7.10;;;13.60;73.50;;;;;;5005178;28;20222;-77
2020/12/25 10:41:37;;;;;;;7.83;7.20;;;13.00;77.20;;;;;;5010784;28;20181;-78
2020/12/25 10:44:04;;;;;;;7.10;6.40;;;12.40;78.10;;;;;;5007574;28;20437;-78
2020/12/25 10:46:30;;;;;;;6.27;5.77;;;11.90;80.00;;;;;;5012211;28;20179;-78
2020/12/25 10:48:56;;;;;;;6.93;6.33;;;11.50;81.10;;;;;;5013290;28;20435;-79
2020/12/25 10:51:28;;;;;;;8.17;7.30;;;11.10;84.50;;;;;;5013382;28;20430;-77
2020/12/25 10:53:54;;;;;;;7.80;7.10;;;10.80;86.00;;;;;;5013858;28;20489;-80
2020/12/25 10:56:21;;;;;;;8.43;7.40;;;10.60;87.10;;;;;;5006170;28;20826;-76
2020/12/25 10:58:47;;;;;;;8.57;7.87;;;10.40;88.80;;;;;;5007595;28;20183;-77
2020/12/25 11:01:27;;;;;;;7.20;6.60;;;10.20;89.50;;;;;;5012457;28;20418;-79
2020/12/25 11:03:54;;;;;;;6.70;6.10;;;10.10;90.20;;;;;;5013307;28;20434;-79
2020/12/25 11:06:29;;;;;;;7.50;6.90;;;10.00;90.50;;;;;;5013184;28;20670;-79
2020/12/25 11:08:54;;;;;;;7.17;6.50;;;10.00;91.30;;;;;;5013695;28;20422;-79
2020/12/25 11:11:27;;;;;;;6.63;6.13;;;9.90;91.90;;;;;;5013231;28;20406;-78
2020/12/25 11:13:53;;;;;;;332.87;171.87;;;9.80;91.70;;;;;;5011863;28;20258;-78
2020/12/25 11:16:30;;;;;;;294.07;191.27;;;9.80;92.60;;;;;;5011323;28;20537;-78
2020/12/25 11:18:58;;;;;;;11.37;10.30;;;10.10;93.30;;;;;;5011645;28;20430;-78
2020/12/25 11:21:24;;;;;;;7.20;6.60;;;10.30;91.70;;;;;;4989085;28;20426;-77
2020/12/25 11:23:51;;;;;;;5.80;5.23;;;10.50;91.50;;;;;;5012410;28;20430;-78
2020/12/25 11:26:27;;;;;;;6.20;5.60;;;10.60;90.60;;;;;;5005234;28;20903;-79
2020/12/25 11:28:55;;;;;;;6.30;5.77;;;10.60;89.80;;;;;;4994627;28;20959;-75
2020/12/25 11:31:22;;;;;;;6.43;5.10;;;10.50;90.00;;;;;;5010920;28;21118;-74
2020/12/25 11:33:49;;;;;;;6.93;4.80;;;10.40;90.10;;;;;;4995657;28;20422;-81
2020/12/25 11:36:23;;;;;;;5.90;5.10;;;10.20;89.90;;;;;;5014757;28;20528;-73
2020/12/25 11:38:49;;;;;;;5.30;4.97;;;10.20;90.20;;;;;;5012717;28;20552;-73
2020/12/25 11:41:16;;;;;;;6.27;4.70;;;10.00;90.00;;;;;;5008685;28;20517;-74
2020/12/25 11:43:43;;;;;;;5.73;5.33;;;9.90;90.90;;;;;;5011840;28;20431;-74
2020/12/25 11:46:09;;;;;;;5.83;5.30;;;9.90;91.00;;;;;;5007091;28;20423;-75
2020/12/25 11:53:39;;;;;;;6.23;4.60;;;9.80;91.90;;;;;;5249153;23;20498;-74
2020/12/25 11:56:05;;;;;;;5.33;4.97;;;9.60;91.80;;;;;;4993802;28;20215;-74
2020/12/25 11:58:31;;;;;;;5.17;4.77;;;9.60;92.50;;;;;;4997959;28;20917;-74
2020/12/25 12:00:58;;;;;;;5.00;4.60;;;9.50;92.60;;;;;;4999492;28;20430;-75
2020/12/25 12:03:25;;;;;;;12.63;7.70;;;9.50;93.50;;;;;;5010648;28;20422;-76
2020/12/25 12:05:51;;;;;;;20.30;15.63;;;10.30;99.90;;;;;;4997001;28;20426;-76
2020/12/25 12:08:17;;;;;;;19.83;15.73;;;11.30;99.90;;;;;;4990034;28;20972;-82
2020/12/25 12:10:43;;;;;;;6.93;5.50;;;12.60;99.90;;;;;;5003735;28;20428;-77
2020/12/25 12:13:08;;;;;;;8.47;7.67;;;13.20;99.90;;;;;;5032814;28;20175;-76
2020/12/25 12:15:38;;;;;;;8.43;6.53;;;13.70;99.90;;;;;;5047021;28;20221;-76
2020/12/25 12:18:05;;;;;;;5.40;4.97;;;14.30;99.90;;;;;;5017822;28;20186;-76
2020/12/25 12:20:33;;;;;;;6.70;5.43;;;15.20;99.90;;;;;;5002653;28;20426;-76
2020/12/25 12:22:59;;;;;;;5.13;4.73;;;15.60;93.30;;;;;;5010613;28;20777;-78
2020/12/25 12:25:24;;;;;;;5.07;4.67;;;15.80;94.60;;;;;;5008594;28;20425;-78
2020/12/25 12:27:50;;;;;;;4.73;4.30;;;16.00;92.60;;;;;;5012627;28;20398;-77
2020/12/25 12:30:16;;;;;;;5.00;4.50;;;16.10;84.10;;;;;;5012612;28;20195;-77
2020/12/25 12:32:42;;;;;;;5.37;4.87;;;16.20;90.10;;;;;;5011816;28;20183;-78
2020/12/25 12:35:08;;;;;;;5.83;5.30;;;16.20;83.90;;;;;;5012589;28;20767;-77
2020/12/25 12:37:34;;;;;;;6.07;5.57;;;16.30;79.20;;;;;;5011633;28;20333;-77
2020/12/25 12:40:00;;;;;;;5.83;5.30;;;16.30;81.70;;;;;;5012243;28;20191;-77
2020/12/25 12:42:25;;;;;;;6.53;5.00;;;16.30;85.70;;;;;;5012068;28;20187;-81
2020/12/25 12:44:52;;;;;;;6.53;4.87;;;16.50;92.60;;;;;;5011663;28;20181;-73
2020/12/25 12:47:18;;;;;;;5.40;4.90;;;16.80;88.10;;;;;;5012093;28;20885;-73
2020/12/25 12:49:44;;;;;;;5.83;5.20;;;16.90;88.90;;;;;;5010115;28;20917;-73
2020/12/25 12:52:10;;;;;;;5.90;5.40;;;16.90;77.40;;;;;;5010542;28;20436;-73
2020/12/25 12:54:36;;;;;;;5.30;4.90;;;16.90;75.90;;;;;;5013864;28;20476;-73
2020/12/25 12:57:03;;;;;;;6.10;5.40;;;16.80;83.40;;;;;;5017571;28;20527;-74
2020/12/25 12:59:29;;;;;;;5.00;4.60;;;16.70;80.30;;;;;;5018439;28;20455;-73